createdAt,value
2023-09-25T00:01:13.978Z,0.82
2023-09-25T00:03:40.697Z,1.02
2023-09-25T00:06:07.297Z,1.30
2023-09-25T00:09:12.739Z,0.85
2023-09-25T00:11:39.254Z,0.80
2023-09-25T00:14:06.292Z,1.30
2023-09-25T00:16:33.023Z,0.70
2023-09-25T00:18:59.579Z,0.70
2023-09-25T00:21:28.227Z,0.88
2023-09-25T00:23:54.758Z,0.70
2023-09-25T00:26:21.220Z,0.70
2023-09-25T00:28:50.286Z,1.27
2023-09-25T00:31:17.290Z,0.88
2023-09-25T00:33:43.840Z,1.02
2023-09-25T00:36:10.406Z,1.25
2023-09-25T00:38:36.860Z,0.80
2023-09-25T00:41:03.393Z,0.85
2023-09-25T00:43:32.381Z,0.70
2023-09-25T00:45:59.926Z,0.68
2023-09-25T00:48:30.954Z,1.48
2023-09-25T00:50:59.931Z,0.63
2023-09-25T00:53:27.793Z,1.23
2023-09-25T00:55:55.942Z,0.82
2023-09-25T00:58:25.934Z,1.23
2023-09-25T01:00:54.193Z,0.70
2023-09-25T01:03:20.919Z,0.90
2023-09-25T01:05:48.582Z,0.90
2023-09-25T01:08:15.114Z,1.10
2023-09-25T01:10:45.529Z,0.73
2023-09-25T01:13:12.380Z,1.33
2023-09-25T01:15:40.150Z,0.80
2023-09-25T01:18:07.459Z,0.90
2023-09-25T01:20:33.955Z,0.88
2023-09-25T01:23:00.715Z,0.77
2023-09-25T01:25:27.192Z,1.08
2023-09-25T01:27:56.236Z,0.73
2023-09-25T01:30:22.914Z,1.40
2023-09-25T01:32:51.402Z,1.05
2023-09-25T01:35:24.802Z,1.15
2023-09-25T01:37:58.915Z,0.80
2023-09-25T01:40:28.570Z,1.17
2023-09-25T01:42:55.059Z,1.20
2023-09-25T01:45:24.504Z,0.93
2023-09-25T01:47:53.366Z,0.90
2023-09-25T01:50:23.068Z,1.33
2023-09-25T01:52:53.904Z,1.00
2023-09-25T01:55:20.776Z,1.23
2023-09-25T01:57:47.659Z,0.95
2023-09-25T02:00:14.946Z,1.52
2023-09-25T02:02:44.200Z,1.00
2023-09-25T02:05:16.824Z,1.20
2023-09-25T02:07:43.772Z,1.00
2023-09-25T02:10:10.560Z,0.68
2023-09-25T02:12:39.556Z,0.55
2023-09-25T02:15:11.826Z,0.70
2023-09-25T02:17:38.411Z,0.70
2023-09-25T02:20:32.216Z,0.98
2023-09-25T02:22:58.734Z,1.13
2023-09-25T02:25:25.130Z,1.00
2023-09-25T02:27:54.100Z,0.95
2023-09-25T02:30:20.603Z,0.73
2023-09-25T02:32:49.641Z,0.63
2023-09-25T02:35:16.436Z,1.10
2023-09-25T02:37:45.904Z,0.80
2023-09-25T02:40:16.338Z,1.27
2023-09-25T02:42:44.032Z,1.40
2023-09-25T02:45:13.717Z,0.82
2023-09-25T02:47:40.237Z,1.10
2023-09-25T02:50:10.607Z,1.20
2023-09-25T02:52:37.548Z,1.23
2023-09-25T02:55:04.909Z,0.80
2023-09-25T02:57:31.477Z,0.82
2023-09-25T03:00:00.291Z,0.80
2023-09-25T03:02:27.309Z,0.85
2023-09-25T03:04:56.310Z,0.95
2023-09-25T03:07:23.009Z,0.60
2023-09-25T03:09:51.923Z,0.70
2023-09-25T03:12:18.465Z,1.00
2023-09-25T03:14:44.874Z,0.85
2023-09-25T03:17:11.274Z,1.40
2023-09-25T03:19:39.470Z,0.93
2023-09-25T03:22:05.986Z,1.00
2023-09-25T03:24:32.430Z,1.00
2023-09-25T03:26:59.000Z,1.10
2023-09-25T03:29:25.437Z,1.17
2023-09-25T03:31:51.942Z,0.90
2023-09-25T03:34:18.919Z,1.00
2023-09-25T03:36:47.677Z,1.23
2023-09-25T03:39:14.155Z,1.23
2023-09-25T03:41:40.671Z,1.33
2023-09-25T03:44:07.097Z,1.13
2023-09-25T03:46:33.657Z,0.93
2023-09-25T03:49:06.699Z,1.35
2023-09-25T03:51:34.248Z,1.02
2023-09-25T03:54:01.511Z,1.33
2023-09-25T03:56:46.690Z,1.20
2023-09-25T03:59:13.349Z,1.25
2023-09-25T04:01:39.892Z,1.10
2023-09-25T04:04:08.110Z,1.10
2023-09-25T04:06:35.307Z,1.35
2023-09-25T04:09:01.873Z,1.23
2023-09-25T04:11:28.647Z,1.45
2023-09-25T04:13:55.711Z,1.00
2023-09-25T04:16:23.649Z,1.20
2023-09-25T04:18:50.683Z,1.67
2023-09-25T04:21:18.678Z,1.35
2023-09-25T04:23:45.309Z,1.20
2023-09-25T04:26:13.275Z,1.38
2023-09-25T04:28:41.508Z,1.45
2023-09-25T04:31:08.358Z,1.27
2023-09-25T04:33:40.099Z,1.00
2023-09-25T04:36:14.714Z,1.75
2023-09-25T04:38:44.759Z,1.73
2023-09-25T04:41:11.237Z,1.50
2023-09-25T04:43:38.232Z,1.30
2023-09-25T04:46:04.809Z,1.33
2023-09-25T04:48:31.553Z,1.15
2023-09-25T04:50:58.570Z,1.85
2023-09-25T04:53:25.099Z,1.30
2023-09-25T04:55:51.607Z,1.80
2023-09-25T04:58:18.175Z,1.35
2023-09-25T05:00:45.763Z,1.90
2023-09-25T05:03:17.380Z,0.98
2023-09-25T05:05:43.864Z,2.15
2023-09-25T05:08:12.709Z,2.05
2023-09-25T05:10:39.114Z,2.20
2023-09-25T05:13:05.617Z,1.67
2023-09-25T05:15:32.147Z,1.90
2023-09-25T05:17:58.880Z,1.70
2023-09-25T05:20:27.598Z,2.08
2023-09-25T05:22:59.025Z,2.13
2023-09-25T05:25:25.822Z,1.87
2023-09-25T05:27:55.300Z,2.70
2023-09-25T05:30:22.180Z,2.35
2023-09-25T05:32:50.927Z,2.53
2023-09-25T05:35:18.576Z,3.05
2023-09-25T05:37:47.018Z,3.35
2023-09-25T05:40:15.063Z,3.65
2023-09-25T05:42:46.559Z,3.38
2023-09-25T05:45:15.361Z,3.60
2023-09-25T05:47:42.412Z,2.38
2023-09-25T05:50:09.361Z,3.45
2023-09-25T05:52:39.122Z,2.60
2023-09-25T05:55:10.257Z,3.92
2023-09-25T05:57:39.443Z,4.18
2023-09-25T06:00:14.072Z,1.83
2023-09-25T06:02:41.909Z,3.55
2023-09-25T06:05:09.779Z,3.75
2023-09-25T06:07:38.907Z,3.42
2023-09-25T06:10:09.374Z,3.65
2023-09-25T06:12:36.955Z,3.30
2023-09-25T06:15:10.480Z,2.75
2023-09-25T06:17:41.500Z,3.75
2023-09-25T06:20:15.510Z,2.77
2023-09-25T06:22:44.972Z,4.22
2023-09-25T06:25:19.725Z,4.28
2023-09-25T06:27:49.847Z,3.33
2023-09-25T06:30:20.781Z,3.42
2023-09-25T06:32:47.615Z,3.17
2023-09-25T06:35:14.361Z,3.70
2023-09-25T06:37:43.499Z,4.07
2023-09-25T06:40:14.072Z,3.78
2023-09-25T06:42:43.337Z,4.07
2023-09-25T06:45:10.299Z,5.32
2023-09-25T06:47:39.130Z,4.75
2023-09-25T06:50:08.335Z,5.13
2023-09-25T06:52:35.056Z,5.32
2023-09-25T06:55:01.470Z,5.72
2023-09-25T06:57:28.107Z,6.13
2023-09-25T06:59:59.357Z,6.25
2023-09-25T07:02:26.597Z,5.83
2023-09-25T07:04:53.267Z,5.80
2023-09-25T07:07:21.948Z,6.05
2023-09-25T07:09:48.936Z,6.38
2023-09-25T07:12:17.079Z,6.05
2023-09-25T07:14:54.438Z,6.03
2023-09-25T07:17:23.375Z,5.88
2023-09-25T07:19:51.766Z,5.50
2023-09-25T07:22:21.904Z,4.57
2023-09-25T07:24:49.068Z,4.22
2023-09-25T07:27:16.357Z,4.72
2023-09-25T07:29:46.764Z,3.83
2023-09-25T07:32:15.248Z,4.80
2023-09-25T07:34:46.467Z,4.60
2023-09-25T07:37:13.805Z,3.55
2023-09-25T07:39:41.270Z,4.03
2023-09-25T07:42:08.452Z,3.35
2023-09-25T07:44:36.146Z,3.20
2023-09-25T07:47:08.197Z,3.85
2023-09-25T07:49:41.382Z,3.55
2023-09-25T07:52:21.152Z,3.53
2023-09-25T07:54:52.257Z,3.70
2023-09-25T07:57:20.976Z,3.75
2023-09-25T07:59:48.284Z,3.67
2023-09-25T08:02:19.429Z,3.60
2023-09-25T08:04:49.649Z,3.90
2023-09-25T08:07:16.206Z,3.15
2023-09-25T08:09:45.490Z,3.00
2023-09-25T08:12:14.074Z,2.85
2023-09-25T08:14:40.481Z,3.42
2023-09-25T08:17:09.612Z,3.00
2023-09-25T08:19:36.095Z,3.63
2023-09-25T08:22:02.513Z,3.63
2023-09-25T08:24:29.026Z,2.95
2023-09-25T08:26:58.222Z,3.67
2023-09-25T08:29:25.182Z,2.53
2023-09-25T08:31:52.741Z,2.78
2023-09-25T08:34:22.703Z,2.65
2023-09-25T08:36:49.107Z,2.30
2023-09-25T08:39:15.903Z,2.40
2023-09-25T08:41:44.119Z,2.47
2023-09-25T08:44:11.782Z,2.17
2023-09-25T08:46:38.676Z,2.63
2023-09-25T08:49:08.114Z,2.17
2023-09-25T08:51:40.253Z,2.40
2023-09-25T08:54:08.105Z,2.35
2023-09-25T08:56:34.803Z,2.10
2023-09-25T08:59:03.449Z,2.42
2023-09-25T09:01:30.582Z,1.70
2023-09-25T09:03:57.382Z,1.52
2023-09-25T09:06:24.164Z,2.05
2023-09-25T09:08:52.580Z,1.52
2023-09-25T09:11:20.709Z,2.55
2023-09-25T09:13:50.739Z,2.65
2023-09-25T09:16:25.528Z,2.60
2023-09-25T09:19:07.510Z,2.05
2023-09-25T09:21:34.440Z,2.10
2023-09-25T09:24:01.040Z,2.10
2023-09-25T09:26:27.506Z,2.40
2023-09-25T09:28:55.436Z,1.50
2023-09-25T09:31:22.331Z,1.42
2023-09-25T09:33:49.317Z,3.65
2023-09-25T09:36:16.010Z,2.00
2023-09-25T09:38:43.882Z,1.70
2023-09-25T09:41:14.364Z,1.45
2023-09-25T09:43:42.477Z,1.75
2023-09-25T09:46:13.443Z,1.77
2023-09-25T09:48:41.500Z,1.77
2023-09-25T09:51:17.437Z,1.48
2023-09-25T09:53:44.236Z,2.10
2023-09-25T09:56:17.658Z,1.95
2023-09-25T09:58:47.937Z,1.50
2023-09-25T10:01:18.191Z,1.52
2023-09-25T10:03:45.028Z,1.40
2023-09-25T10:06:12.377Z,1.45
2023-09-25T10:08:38.874Z,1.73
2023-09-25T10:11:24.321Z,1.15
2023-09-25T10:13:54.909Z,1.25
2023-09-25T10:16:21.524Z,1.42
2023-09-25T10:18:53.184Z,2.00
2023-09-25T10:21:19.652Z,1.60
2023-09-25T10:23:53.144Z,1.23
2023-09-25T10:26:22.922Z,2.45
2023-09-25T10:29:20.938Z,2.50
2023-09-25T10:31:48.226Z,1.80
2023-09-25T10:34:17.678Z,1.35
2023-09-25T10:36:48.796Z,1.50
2023-09-25T10:39:19.039Z,1.27
2023-09-25T10:41:47.164Z,1.00
2023-09-25T10:44:14.556Z,1.42
2023-09-25T10:46:41.846Z,1.38
2023-09-25T10:49:11.044Z,1.70
2023-09-25T10:51:37.523Z,1.35
2023-09-25T10:54:06.390Z,1.13
2023-09-25T10:56:33.709Z,1.10
2023-09-25T10:59:01.761Z,1.33
2023-09-25T11:01:30.382Z,1.13
2023-09-25T11:04:00.649Z,0.85
2023-09-25T11:06:28.427Z,1.15
2023-09-25T11:09:15.373Z,1.33
2023-09-25T11:11:42.405Z,1.15
2023-09-25T11:14:09.207Z,1.30
2023-09-25T11:16:35.922Z,1.00
2023-09-25T11:19:15.440Z,1.05
2023-09-25T11:21:51.470Z,1.10
2023-09-25T11:24:18.873Z,1.20
2023-09-25T11:26:45.641Z,1.50
2023-09-25T11:29:13.524Z,1.20
2023-09-25T11:34:10.756Z,1.08
2023-09-25T11:36:44.979Z,0.80
2023-09-25T11:39:17.733Z,1.15
2023-09-25T11:41:45.332Z,0.90
2023-09-25T11:44:12.037Z,3.58
2023-09-25T11:46:41.647Z,0.90
2023-09-25T11:49:08.229Z,1.02
2023-09-25T11:51:34.849Z,0.95
2023-09-25T11:54:03.236Z,1.02
2023-09-25T11:56:35.062Z,0.80
2023-09-25T11:59:01.981Z,0.88
2023-09-25T12:01:29.246Z,0.95
2023-09-25T12:03:56.451Z,1.10
2023-09-25T12:06:25.603Z,0.88
2023-09-25T12:08:52.446Z,1.30
2023-09-25T12:11:22.632Z,1.50
2023-09-25T12:13:51.831Z,1.20
2023-09-25T12:16:19.174Z,0.93
2023-09-25T12:18:46.321Z,1.17
2023-09-25T12:21:13.022Z,1.05
2023-09-25T12:23:39.832Z,1.20
2023-09-25T12:26:06.410Z,1.10
2023-09-25T12:28:34.901Z,1.13
2023-09-25T12:31:01.689Z,0.75
2023-09-25T12:33:31.381Z,1.05
2023-09-25T12:36:04.193Z,0.75
2023-09-25T12:38:30.839Z,1.08
2023-09-25T12:40:57.896Z,0.70
2023-09-25T12:43:24.576Z,1.35
2023-09-25T12:45:53.447Z,1.27
2023-09-25T12:48:25.376Z,0.88
2023-09-25T12:50:52.333Z,1.10
2023-09-25T12:53:19.979Z,0.80
2023-09-25T12:55:46.955Z,1.58
2023-09-25T12:58:13.528Z,0.93
2023-09-25T13:00:40.109Z,1.00
2023-09-25T13:03:07.524Z,0.90
2023-09-25T13:05:34.606Z,1.08
2023-09-25T13:08:01.303Z,0.80
2023-09-25T13:10:29.143Z,1.05
2023-09-25T13:12:55.707Z,1.20
2023-09-25T13:15:22.478Z,0.90
2023-09-25T13:17:51.203Z,0.75
2023-09-25T13:20:17.889Z,1.10
2023-09-25T13:22:44.415Z,1.23
2023-09-25T13:25:11.276Z,1.40
2023-09-25T13:27:38.266Z,1.05
2023-09-25T13:30:12.495Z,0.98
2023-09-25T13:32:39.139Z,0.95
2023-09-25T13:35:05.877Z,0.85
2023-09-25T13:37:33.492Z,1.60
2023-09-25T13:40:00.538Z,0.93
2023-09-25T13:42:30.624Z,1.00
2023-09-25T13:44:57.305Z,0.90
2023-09-25T13:47:23.856Z,0.90
2023-09-25T13:49:51.185Z,1.13
2023-09-25T13:52:17.857Z,1.08
2023-09-25T13:54:45.161Z,0.90
2023-09-25T13:57:13.803Z,0.70
2023-09-25T13:59:40.989Z,1.05
2023-09-25T14:02:07.828Z,0.90
2023-09-25T14:04:34.313Z,1.10
2023-09-25T14:07:01.003Z,1.17
2023-09-25T14:09:27.538Z,0.95
2023-09-25T14:11:56.669Z,1.15
2023-09-25T14:14:40.331Z,0.90
2023-09-25T14:17:07.398Z,0.85
2023-09-25T14:19:33.817Z,0.80
2023-09-25T14:22:05.505Z,0.93
2023-09-25T14:27:04.075Z,0.95
2023-09-25T14:29:32.153Z,1.00
2023-09-25T14:31:59.450Z,0.90
2023-09-25T14:34:28.222Z,1.25
2023-09-25T14:36:54.792Z,1.00
2023-09-25T14:39:25.359Z,1.00
2023-09-25T14:41:52.285Z,1.17
2023-09-25T14:44:18.749Z,1.10
2023-09-25T14:46:45.174Z,1.20
2023-09-25T14:49:12.818Z,1.35
2023-09-25T14:51:41.642Z,1.20
2023-09-25T14:54:13.019Z,1.85
2023-09-25T14:56:39.431Z,0.77
2023-09-25T14:59:06.257Z,0.88
2023-09-25T15:01:32.974Z,1.02
2023-09-25T15:03:59.484Z,0.63
2023-09-25T15:06:26.628Z,1.20
2023-09-25T15:08:54.131Z,1.27
2023-09-25T15:11:23.152Z,0.98
2023-09-25T15:13:50.087Z,1.00
2023-09-25T15:16:16.926Z,1.30
2023-09-25T15:18:44.277Z,1.10
2023-09-25T15:21:11.623Z,0.73
2023-09-25T15:23:41.237Z,0.93
2023-09-25T15:26:07.626Z,0.90
2023-09-25T15:28:38.934Z,0.95
2023-09-25T15:31:05.966Z,0.88
2023-09-25T15:33:32.483Z,0.80
2023-09-25T15:35:59.145Z,0.90
2023-09-25T15:38:25.622Z,1.38
2023-09-25T15:40:52.071Z,1.15
2023-09-25T15:43:18.669Z,0.90
2023-09-25T15:45:45.492Z,1.30
2023-09-25T15:48:12.063Z,0.90
2023-09-25T15:50:41.309Z,1.13
2023-09-25T15:53:07.730Z,1.20
2023-09-25T15:55:34.243Z,0.95
2023-09-25T15:58:00.872Z,1.02
2023-09-25T16:00:28.573Z,1.10
2023-09-25T16:02:55.072Z,1.20
2023-09-25T16:05:21.660Z,1.00
2023-09-25T16:07:50.791Z,0.88
2023-09-25T16:10:19.610Z,1.25
2023-09-25T16:12:46.189Z,1.02
2023-09-25T16:15:14.914Z,1.20
2023-09-25T16:17:41.905Z,1.30
2023-09-25T16:20:08.617Z,1.15
2023-09-25T16:22:35.164Z,1.45
2023-09-25T16:25:01.797Z,1.20
2023-09-25T16:27:33.302Z,1.15
2023-09-25T16:30:00.121Z,1.20
2023-09-25T16:32:26.857Z,1.10
2023-09-25T16:34:53.568Z,1.05
2023-09-25T16:37:22.013Z,1.30
2023-09-25T16:39:48.426Z,0.85
2023-09-25T16:42:15.005Z,0.90
2023-09-25T16:44:41.482Z,1.15
2023-09-25T16:47:08.045Z,1.10
2023-09-25T16:49:34.779Z,1.30
2023-09-25T16:52:01.244Z,1.67
2023-09-25T16:54:27.731Z,1.83
2023-09-25T16:56:56.531Z,1.90
2023-09-25T16:59:22.958Z,1.77
2023-09-25T17:01:49.477Z,1.20
2023-09-25T17:04:18.454Z,1.40
2023-09-25T17:06:44.897Z,1.60
2023-09-25T17:09:13.704Z,1.30
2023-09-25T17:11:40.179Z,1.45
2023-09-25T17:14:06.819Z,1.63
2023-09-25T17:16:33.497Z,1.13
2023-09-25T17:19:00.304Z,1.13
2023-09-25T17:21:27.548Z,1.45
2023-09-25T17:23:54.327Z,1.70
2023-09-25T17:26:21.786Z,2.05
2023-09-25T17:28:55.005Z,1.73
2023-09-25T17:31:23.268Z,1.67
2023-09-25T17:33:52.407Z,1.90
2023-09-25T17:36:21.784Z,1.77
2023-09-25T17:38:48.442Z,1.50
2023-09-25T17:41:15.337Z,1.77
2023-09-25T17:43:42.004Z,16.33
2023-09-25T17:46:11.378Z,15.15
2023-09-25T17:48:43.696Z,7.35
2023-09-25T17:51:10.231Z,6.05
2023-09-25T17:53:36.655Z,6.00
2023-09-25T17:56:03.274Z,6.50
2023-09-25T17:58:31.808Z,7.13
2023-09-25T18:00:59.984Z,6.68
2023-09-25T18:03:27.986Z,6.70
2023-09-25T18:05:57.090Z,6.85
2023-09-25T18:08:25.982Z,6.03
2023-09-25T18:10:52.429Z,4.95
2023-09-25T18:13:22.432Z,3.95
2023-09-25T18:15:52.859Z,6.32
2023-09-25T18:18:19.679Z,4.28
2023-09-25T18:20:46.344Z,4.53
2023-09-25T18:23:12.891Z,2.85
2023-09-25T18:25:42.221Z,3.33
2023-09-25T18:28:08.919Z,2.95
2023-09-25T18:30:36.535Z,2.55
2023-09-25T18:33:04.388Z,3.00
2023-09-25T18:35:32.878Z,2.60
2023-09-25T18:37:59.382Z,3.13
2023-09-25T18:40:28.583Z,2.58
2023-09-25T18:42:56.511Z,2.97
2023-09-25T18:45:24.123Z,3.78
2023-09-25T18:47:50.615Z,5.03
2023-09-25T18:50:17.131Z,3.30
2023-09-25T18:52:43.538Z,3.65
2023-09-25T18:55:10.241Z,2.95
2023-09-25T18:57:36.796Z,2.70
2023-09-25T19:00:03.981Z,3.53
2023-09-25T19:02:30.952Z,4.13
2023-09-25T19:04:57.433Z,3.75
2023-09-25T19:07:23.983Z,5.70
2023-09-25T19:09:53.655Z,3.97
2023-09-25T19:12:20.295Z,3.58
2023-09-25T19:14:47.437Z,3.67
2023-09-25T19:17:16.000Z,3.33
2023-09-25T19:19:42.492Z,3.42
2023-09-25T19:22:11.186Z,4.93
2023-09-25T19:24:37.651Z,3.55
2023-09-25T19:27:05.515Z,3.17
2023-09-25T19:29:32.170Z,3.40
2023-09-25T19:31:58.768Z,2.78
2023-09-25T19:34:25.436Z,2.40
2023-09-25T19:36:51.994Z,2.85
2023-09-25T19:39:20.760Z,2.65
2023-09-25T19:41:47.153Z,2.78
2023-09-25T19:44:13.999Z,2.85
2023-09-25T19:46:40.713Z,2.83
2023-09-25T19:49:07.489Z,3.03
2023-09-25T19:51:36.439Z,2.83
2023-09-25T19:54:03.656Z,2.95
2023-09-25T19:56:30.154Z,4.22
2023-09-25T19:58:56.558Z,3.03
2023-09-25T20:01:23.164Z,3.55
2023-09-25T20:03:49.949Z,2.80
2023-09-25T20:06:16.702Z,3.15
2023-09-25T20:08:43.104Z,2.83
2023-09-25T20:11:09.562Z,2.83
2023-09-25T20:13:37.456Z,2.60
2023-09-25T20:16:06.313Z,3.58
2023-09-25T20:18:33.244Z,2.70
2023-09-25T20:21:02.197Z,2.72
2023-09-25T20:23:28.675Z,2.80
2023-09-25T20:25:55.615Z,2.97
2023-09-25T20:28:24.338Z,3.17
2023-09-25T20:30:53.358Z,2.45
2023-09-25T20:33:19.901Z,3.35
2023-09-25T20:35:49.477Z,2.97
2023-09-25T20:38:15.996Z,3.22
2023-09-25T20:40:42.433Z,2.15
2023-09-25T20:43:08.980Z,2.30
2023-09-25T20:45:38.237Z,2.08
2023-09-25T20:48:05.241Z,2.70
2023-09-25T20:50:31.896Z,3.72
2023-09-25T20:53:04.082Z,3.25
2023-09-25T20:55:31.378Z,2.63
2023-09-25T20:58:01.190Z,3.53
2023-09-25T21:00:28.773Z,3.33
2023-09-25T21:02:55.810Z,3.13
2023-09-25T21:05:22.312Z,3.25
2023-09-25T21:07:54.547Z,2.13
2023-09-25T21:10:21.643Z,3.00
2023-09-25T21:12:50.497Z,2.90
2023-09-25T21:15:17.210Z,3.35
2023-09-25T21:17:43.831Z,3.05
2023-09-25T21:20:11.677Z,2.55
2023-09-25T21:22:39.376Z,2.85
2023-09-25T21:25:12.107Z,2.55
2023-09-25T21:27:38.762Z,3.60
2023-09-25T21:30:06.288Z,3.03
2023-09-25T21:32:32.802Z,2.85
2023-09-25T21:35:01.298Z,2.70
2023-09-25T21:37:27.786Z,2.50
2023-09-25T21:39:54.371Z,2.85
2023-09-25T21:42:21.800Z,3.10
2023-09-25T21:44:48.357Z,3.33
2023-09-25T21:47:15.269Z,2.60
2023-09-25T21:49:41.895Z,3.80
2023-09-25T21:52:08.314Z,3.70
2023-09-25T21:54:34.945Z,2.55
2023-09-25T21:57:01.513Z,2.90
2023-09-25T21:59:28.628Z,2.88
2023-09-25T22:01:55.157Z,3.20
2023-09-25T22:04:23.848Z,3.17
2023-09-25T22:06:50.638Z,3.05
2023-09-25T22:09:17.350Z,3.22
2023-09-25T22:11:43.907Z,3.45
2023-09-25T22:14:10.386Z,3.22
2023-09-25T22:16:36.964Z,2.88
2023-09-25T22:19:03.790Z,3.15
2023-09-25T22:21:30.395Z,3.28
2023-09-25T22:23:56.882Z,3.00
2023-09-25T22:26:23.365Z,3.42
2023-09-25T22:28:49.778Z,2.55
2023-09-25T22:31:18.455Z,3.20
2023-09-25T22:33:46.154Z,3.45
2023-09-25T22:36:12.785Z,3.53
2023-09-25T22:38:39.628Z,4.22
2023-09-25T22:41:07.026Z,3.08
2023-09-25T22:43:38.945Z,3.60
2023-09-25T22:46:07.573Z,3.65
2023-09-25T22:48:34.433Z,3.08
2023-09-25T22:51:01.415Z,3.08
2023-09-25T22:53:28.110Z,2.85
2023-09-25T22:55:54.543Z,3.05
2023-09-25T22:58:23.352Z,2.60
2023-09-25T23:00:53.290Z,2.10
2023-09-25T23:03:20.280Z,2.22
2023-09-25T23:05:47.681Z,3.75
2023-09-25T23:08:16.589Z,2.67
2023-09-25T23:10:45.631Z,3.13
2023-09-25T23:13:12.182Z,3.28
2023-09-25T23:15:38.681Z,3.17
2023-09-25T23:18:05.470Z,2.55
2023-09-25T23:20:32.123Z,2.53
2023-09-25T23:22:58.588Z,3.30
2023-09-25T23:25:27.332Z,2.90
2023-09-25T23:27:56.650Z,3.22
2023-09-25T23:30:24.688Z,3.40
2023-09-25T23:32:52.289Z,3.67
2023-09-25T23:35:19.513Z,3.35
2023-09-25T23:37:50.444Z,3.03
2023-09-25T23:40:22.745Z,2.72
2023-09-25T23:42:50.249Z,3.45
2023-09-25T23:45:18.220Z,2.72
2023-09-25T23:47:49.389Z,2.20
2023-09-25T23:50:16.758Z,2.10
2023-09-25T23:52:45.742Z,2.10
2023-09-25T23:55:12.920Z,2.58
2023-09-25T23:57:40.623Z,2.58
